Terminal Aerodrome Forecast
Issued by NWS Upton, NY

Home | Current Version | Previous Version | Text Only | Print | Product List | Glossary On
Versions: 1 2 3 4 5 6 7 8 9 10 11 12 13 14 15 16 17 18 19 20 21 22 23 24 25 26 27 28 29 30 31 32 33
000
FTUS41 KOKX 171900 AAA
TAFEWR
TAF AMD
KEWR 171931Z 1720/1824 26007KT P6SM FEW060
     FM172200 24007KT P6SM FEW050 FEW250
     FM180500 26005KT P6SM FEW070 SCT250
     FM181200 34007KT P6SM FEW050 SCT250
     FM182000 31007KT P6SM FEW050 SCT250=

USA.gov is the U.S. government's official web portal to all federal, state and local government web resources and services.